Time;durP1;ratioP1;P1;durP2;ratioP2;P2;SDS_P1;SDS_P2;PMS_P1;PMS_P2;Temp;Humidity;BMP_temperature;BMP_pressure;BME280_temperature;BME280_humidity;BME280_pressure;Samples;Min_cycle;Max_cycle;Signal;HPM_P1;HPM_P2
2022/09/02 00:00:44;;;;;;;3.92;3.30;;;;;;;;;;5039575;28;20107;-88
2022/09/02 00:03:11;;;;;;;4.35;3.42;;;;;;;;;;5039578;28;20087;-88
2022/09/02 00:05:39;;;;;;;4.93;3.20;;;;;;;;;;5039344;28;20053;-88
2022/09/02 00:08:06;;;;;;;7.00;3.97;;;;;;;;;;5039350;28;20077;-88
2022/09/02 00:10:36;;;;;;;4.22;3.53;;;;;;;;;;5057329;28;20105;-88
2022/09/02 00:13:05;;;;;;;3.72;3.53;;;;;;;;;;5056750;28;20081;-88
2022/09/02 00:15:32;;;;;;;3.75;3.45;;;;;;;;;;5056579;28;20067;-88
2022/09/02 00:18:00;;;;;;;4.07;3.55;;;;;;;;;;5038911;28;20560;-88
2022/09/02 00:20:29;;;;;;;3.90;3.35;;;;;;;;;;5038965;28;20559;-88
2022/09/02 00:22:56;;;;;;;5.60;3.83;;;;;;;;;;5056439;28;20148;-88
2022/09/02 00:25:26;;;;;;;4.00;3.25;;;;;;;;;;5056427;28;20473;-88
2022/09/02 00:27:53;;;;;;;4.63;3.15;;;;;;;;;;5056364;28;20096;-88
2022/09/02 00:30:20;;;;;;;4.18;3.55;;;;;;;;;;5056449;28;20136;-88
2022/09/02 00:32:47;;;;;;;3.63;3.28;;;;;;;;;;5056409;28;20072;-88
2022/09/02 00:35:14;;;;;;;4.35;3.20;;;;;;;;;;5038950;28;20095;-88
2022/09/02 00:37:42;;;;;;;6.65;3.47;;;;;;;;;;5038670;28;20127;-88
2022/09/02 00:40:10;;;;;;;2.90;2.70;;;;;;;;;;5038804;28;20123;-88
2022/09/02 00:42:37;;;;;;;6.05;3.55;;;;;;;;;;5038724;28;20060;-88
2022/09/02 00:45:06;;;;;;;3.58;3.25;;;;;;;;;;5038605;28;20049;-89
2022/09/02 00:47:33;;;;;;;3.83;3.22;;;;;;;;;;5038910;28;20072;-89
2022/09/02 00:50:02;;;;;;;3.63;3.30;;;;;;;;;;5037717;28;20075;-88
2022/09/02 00:52:32;;;;;;;3.83;3.53;;;;;;;;;;5038672;28;20073;-89
2022/09/02 00:55:10;;;;;;;5.70;3.60;;;;;;;;;;5038575;28;20459;-88
2022/09/02 00:57:39;;;;;;;3.28;2.92;;;;;;;;;;5038163;28;20076;-88
2022/09/02 01:00:18;;;;;;;3.72;3.53;;;;;;;;;;5038605;28;20161;-88
2022/09/02 01:02:50;;;;;;;5.50;3.88;;;;;;;;;;5038412;28;20099;-89
2022/09/02 01:05:18;;;;;;;3.90;3.60;;;;;;;;;;5038114;28;20516;-89
2022/09/02 01:07:46;;;;;;;4.30;4.03;;;;;;;;;;5038095;28;20049;-88
2022/09/02 01:10:16;;;;;;;5.97;3.75;;;;;;;;;;5038067;28;20135;-88
2022/09/02 01:12:43;;;;;;;3.95;3.58;;;;;;;;;;5038180;28;20096;-88
2022/09/02 01:15:11;;;;;;;3.78;3.50;;;;;;;;;;5038187;28;20461;-88
2022/09/02 01:17:41;;;;;;;6.47;3.38;;;;;;;;;;5037683;28;20088;-88
2022/09/02 01:20:10;;;;;;;3.70;3.38;;;;;;;;;;5038192;28;20131;-89
2022/09/02 01:22:40;;;;;;;3.60;3.30;;;;;;;;;;5036655;28;20045;-89
2022/09/02 01:25:12;;;;;;;3.85;3.55;;;;;;;;;;5037879;28;20057;-89
2022/09/02 01:27:39;;;;;;;3.88;3.50;;;;;;;;;;5037886;28;20041;-88
2022/09/02 01:30:08;;;;;;;3.75;3.38;;;;;;;;;;5037698;28;20092;-88
2022/09/02 01:32:35;;;;;;;5.60;4.10;;;;;;;;;;5055211;28;20048;-88
2022/09/02 01:35:03;;;;;;;4.05;3.85;;;;;;;;;;5054927;28;20084;-88
2022/09/02 01:37:31;;;;;;;4.18;3.20;;;;;;;;;;5037249;28;20135;-88
2022/09/02 01:39:58;;;;;;;6.10;3.83;;;;;;;;;;5055154;28;20076;-89
2022/09/02 01:42:25;;;;;;;4.57;3.60;;;;;;;;;;5054982;28;20088;-88
2022/09/02 01:44:53;;;;;;;4.20;3.50;;;;;;;;;;5054608;28;20513;-89
2022/09/02 01:47:22;;;;;;;3.50;3.20;;;;;;;;;;5037195;28;20160;-88
2022/09/02 01:49:49;;;;;;;5.90;3.75;;;;;;;;;;5037161;28;20552;-89
2022/09/02 01:52:17;;;;;;;6.22;4.32;;;;;;;;;;5037304;28;20091;-88
2022/09/02 01:54:45;;;;;;;5.93;3.70;;;;;;;;;;5037009;28;20501;-89
2022/09/02 01:57:12;;;;;;;3.55;3.30;;;;;;;;;;5037023;28;20135;-88
2022/09/02 01:59:39;;;;;;;6.55;4.15;;;;;;;;;;5054306;28;20141;-87
2022/09/02 02:02:07;;;;;;;5.25;3.90;;;;;;;;;;5036682;28;20084;-88
2022/09/02 02:04:35;;;;;;;4.18;3.78;;;;;;;;;;5036986;28;20051;-88
2022/09/02 02:07:05;;;;;;;4.60;4.20;;;;;;;;;;5054567;28;20056;-88
2022/09/02 02:09:33;;;;;;;5.22;4.72;;;;;;;;;;5036937;28;20512;-88
2022/09/02 02:12:00;;;;;;;4.88;4.57;;;;;;;;;;5054449;28;20092;-89
2022/09/02 02:14:27;;;;;;;6.13;4.22;;;;;;;;;;5037064;28;20099;-88
2022/09/02 02:16:55;;;;;;;4.75;3.97;;;;;;;;;;5053960;28;20508;-89
2022/09/02 02:19:22;;;;;;;4.95;4.00;;;;;;;;;;5036779;28;20057;-89
2022/09/02 02:21:49;;;;;;;4.18;3.65;;;;;;;;;;5036804;28;20106;-89
2022/09/02 02:24:16;;;;;;;5.00;4.60;;;;;;;;;;5036820;28;20123;-88
2022/09/02 02:26:44;;;;;;;4.15;3.80;;;;;;;;;;5053971;28;20080;-88
2022/09/02 02:29:12;;;;;;;4.22;3.85;;;;;;;;;;5036793;28;20044;-89
2022/09/02 02:31:39;;;;;;;4.68;3.78;;;;;;;;;;5036496;28;20505;-88
2022/09/02 02:34:07;;;;;;;6.13;4.47;;;;;;;;;;5054175;28;20049;-89
2022/09/02 02:36:34;;;;;;;4.82;4.43;;;;;;;;;;5036781;28;20182;-89
2022/09/02 02:39:01;;;;;;;5.13;4.78;;;;;;;;;;5036467;28;20527;-88
2022/09/02 02:41:31;;;;;;;4.97;4.57;;;;;;;;;;5036601;28;20572;-88
2022/09/02 02:43:59;;;;;;;5.10;4.68;;;;;;;;;;5053802;28;20095;-88
2022/09/02 02:46:29;;;;;;;6.70;4.55;;;;;;;;;;5036923;28;20132;-89
2022/09/02 02:49:00;;;;;;;6.10;4.78;;;;;;;;;;5036502;28;20071;-89
2022/09/02 02:51:27;;;;;;;4.35;4.05;;;;;;;;;;5036330;28;20053;-89
2022/09/02 02:53:55;;;;;;;4.88;4.45;;;;;;;;;;5036537;28;20473;-88
2022/09/02 02:56:25;;;;;;;6.53;4.97;;;;;;;;;;5036773;28;20076;-88
2022/09/02 02:58:52;;;;;;;5.15;4.60;;;;;;;;;;5053455;28;20080;-88
2022/09/02 03:01:19;;;;;;;4.90;4.40;;;;;;;;;;5036371;28;20049;-88
2022/09/02 03:03:46;;;;;;;5.07;4.18;;;;;;;;;;5036590;28;20049;-88
2022/09/02 03:06:14;;;;;;;8.07;4.43;;;;;;;;;;5035998;28;20102;-88
2022/09/02 03:08:47;;;;;;;4.53;3.90;;;;;;;;;;5036545;28;20052;-88
2022/09/02 03:11:17;;;;;;;6.63;3.80;;;;;;;;;;5035977;28;20056;-89
2022/09/02 03:13:44;;;;;;;4.18;3.88;;;;;;;;;;5053110;28;20095;-89
2022/09/02 03:16:11;;;;;;;4.25;3.92;;;;;;;;;;5035893;28;20076;-88
2022/09/02 03:18:38;;;;;;;3.92;3.55;;;;;;;;;;5052975;28;20068;-89
2022/09/02 03:21:07;;;;;;;4.30;3.97;;;;;;;;;;5053379;28;20460;-89
2022/09/02 03:23:34;;;;;;;5.22;3.63;;;;;;;;;;5035747;28;20135;-89
2022/09/02 03:26:01;;;;;;;4.35;3.97;;;;;;;;;;5053238;28;20091;-88
2022/09/02 03:28:28;;;;;;;4.43;4.03;;;;;;;;;;5035798;28;20152;-88
2022/09/02 03:30:55;;;;;;;4.63;3.78;;;;;;;;;;5035857;28;20049;-88
2022/09/02 03:33:23;;;;;;;4.65;4.32;;;;;;;;;;5035723;28;20047;-88
2022/09/02 03:35:53;;;;;;;4.03;3.65;;;;;;;;;;5036123;28;20092;-88
2022/09/02 03:38:20;;;;;;;5.40;4.03;;;;;;;;;;5035742;28;20084;-88
2022/09/02 03:40:47;;;;;;;4.55;4.15;;;;;;;;;;5035847;28;20052;-88
2022/09/02 03:43:15;;;;;;;4.43;4.13;;;;;;;;;;5035737;28;20088;-88
2022/09/02 03:45:42;;;;;;;4.63;4.20;;;;;;;;;;5035625;28;20088;-88
2022/09/02 03:48:11;;;;;;;4.30;4.00;;;;;;;;;;5035582;28;20045;-89
2022/09/02 03:50:39;;;;;;;4.28;3.97;;;;;;;;;;5052981;28;20103;-88
2022/09/02 03:53:07;;;;;;;4.25;4.00;;;;;;;;;;5053267;28;20470;-89
2022/09/02 03:55:45;;;;;;;4.22;3.83;;;;;;;;;;5037342;28;20077;-88
2022/09/02 03:58:15;;;;;;;8.38;4.95;;;;;;;;;;5035514;28;20056;-88
2022/09/02 04:00:42;;;;;;;6.95;4.68;;;;;;;;;;5035428;28;20135;-86
2022/09/02 04:03:10;;;;;;;8.70;7.43;;;;;;;;;;5035607;28;20087;-89
2022/09/02 04:05:38;;;;;;;8.27;7.18;;;;;;;;;;5035618;28;20053;-88
2022/09/02 04:08:05;;;;;;;9.55;6.97;;;;;;;;;;5035715;28;20127;-89
2022/09/02 04:10:32;;;;;;;10.70;7.93;;;;;;;;;;5035596;28;20083;-89
2022/09/02 04:12:59;;;;;;;16.70;12.73;;;;;;;;;;5035666;28;20549;-89
2022/09/02 04:15:26;;;;;;;17.95;11.48;;;;;;;;;;5035454;28;20076;-89
2022/09/02 04:17:55;;;;;;;16.95;11.20;;;;;;;;;;5035138;28;20148;-89
2022/09/02 04:20:22;;;;;;;14.52;10.13;;;;;;;;;;5035703;28;20099;-89
2022/09/02 04:22:50;;;;;;;12.00;9.45;;;;;;;;;;5035863;28;20450;-89
2022/09/02 04:25:17;;;;;;;11.30;9.70;;;;;;;;;;5038806;28;20091;-89
2022/09/02 04:27:44;;;;;;;9.27;8.48;;;;;;;;;;5056548;28;20049;-89
2022/09/02 04:30:15;;;;;;;10.18;9.18;;;;;;;;;;5038917;28;20076;-89
2022/09/02 04:32:42;;;;;;;7.43;6.72;;;;;;;;;;5056514;28;20052;-89
2022/09/02 04:35:09;;;;;;;8.80;7.88;;;;;;;;;;5039151;28;20087;-89
2022/09/02 04:37:36;;;;;;;7.80;7.03;;;;;;;;;;5056241;28;20091;-90
2022/09/02 04:40:04;;;;;;;7.80;7.10;;;;;;;;;;5038572;28;20152;-89
2022/09/02 04:42:31;;;;;;;9.93;7.97;;;;;;;;;;5038408;28;20136;-89
2022/09/02 04:44:58;;;;;;;9.95;7.32;;;;;;;;;;5038471;28;20072;-90
2022/09/02 04:47:26;;;;;;;7.70;6.53;;;;;;;;;;5038822;28;20076;-89
2022/09/02 04:49:54;;;;;;;7.13;5.93;;;;;;;;;;5038554;28;20058;-89
2022/09/02 04:52:21;;;;;;;6.80;5.65;;;;;;;;;;5038568;28;20076;-90
2022/09/02 04:54:49;;;;;;;9.40;6.40;;;;;;;;;;5038804;28;20045;-90
2022/09/02 04:57:16;;;;;;;11.60;6.45;;;;;;;;;;5038211;28;20088;-89
2022/09/02 04:59:44;;;;;;;7.68;5.22;;;;;;;;;;5038447;28;20057;-90
2022/09/02 05:02:12;;;;;;;6.65;6.07;;;;;;;;;;5038529;28;20119;-90
2022/09/02 05:04:39;;;;;;;6.75;6.15;;;;;;;;;;5038104;28;20060;-89
2022/09/02 05:07:06;;;;;;;7.05;6.45;;;;;;;;;;5055724;28;20102;-90
2022/09/02 05:09:34;;;;;;;6.47;5.97;;;;;;;;;;5055584;28;20135;-90
2022/09/02 05:12:03;;;;;;;7.95;7.15;;;;;;;;;;5055590;28;20059;-89
2022/09/02 05:14:31;;;;;;;8.55;7.68;;;;;;;;;;5038601;28;20045;-90
2022/09/02 05:16:59;;;;;;;8.80;7.68;;;;;;;;;;5038183;28;20061;-90
2022/09/02 05:19:33;;;;;;;18.20;14.75;;;;;;;;;;5039343;28;20064;-90
2022/09/02 05:22:01;;;;;;;43.47;35.97;;;;;;;;;;5037987;28;20049;-90
2022/09/02 05:24:28;;;;;;;47.47;37.75;;;;;;;;;;5038111;28;20048;-90
2022/09/02 05:26:55;;;;;;;38.58;33.10;;;;;;;;;;5037992;28;20079;-89
2022/09/02 05:29:23;;;;;;;59.42;45.70;;;;;;;;;;5055552;28;20052;-90
2022/09/02 05:31:50;;;;;;;44.15;39.28;;;;;;;;;;5055226;28;20083;-89
2022/09/02 05:34:18;;;;;;;15.35;13.75;;;;;;;;;;5055463;28;20076;-88
2022/09/02 05:36:45;;;;;;;5.75;5.25;;;;;;;;;;5037551;28;20052;-90
2022/09/02 05:39:13;;;;;;;9.32;8.07;;;;;;;;;;5055248;28;20088;-90
2022/09/02 05:41:41;;;;;;;7.53;5.10;;;;;;;;;;5055151;28;20080;-90
2022/09/02 05:44:08;;;;;;;3.22;2.22;;;;;;;;;;5037529;28;20132;-90
2022/09/02 05:46:35;;;;;;;2.65;1.92;;;;;;;;;;5055093;28;20386;-89
2022/09/02 05:49:16;;;;;;;5.30;2.00;;;;;;;;;;5037264;28;20132;-90
2022/09/02 05:51:45;;;;;;;4.57;2.72;;;;;;;;;;5054868;28;20072;-89
2022/09/02 05:54:14;;;;;;;3.33;2.08;;;;;;;;;;5054651;28;20049;-90
2022/09/02 05:56:42;;;;;;;4.95;2.95;;;;;;;;;;5037482;28;20137;-90
2022/09/02 05:59:11;;;;;;;3.78;2.58;;;;;;;;;;5037209;28;20081;-89
2022/09/02 06:01:40;;;;;;;2.50;2.30;;;;;;;;;;5054714;28;20068;-90
2022/09/02 06:04:10;;;;;;;3.25;3.05;;;;;;;;;;5054550;28;20049;-90
2022/09/02 06:06:37;;;;;;;3.45;2.53;;;;;;;;;;5054728;28;20131;-88
2022/09/02 06:09:07;;;;;;;2.50;1.75;;;;;;;;;;5037116;28;20084;-89
2022/09/02 06:11:38;;;;;;;3.83;2.05;;;;;;;;;;5036868;28;20421;-88
2022/09/02 06:14:06;;;;;;;5.88;1.63;;;;;;;;;;5037045;28;20053;-90
2022/09/02 06:16:34;;;;;;;2.90;1.60;;;;;;;;;;5036604;28;20139;-90
2022/09/02 06:19:02;;;;;;;2.75;1.23;;;;;;;;;;5036831;28;20104;-90
2022/09/02 06:21:30;;;;;;;5.65;1.15;;;;;;;;;;5036743;28;20076;-90
2022/09/02 06:23:58;;;;;;;7.10;2.20;;;;;;;;;;5054077;28;20072;-90
2022/09/02 06:26:25;;;;;;;2.83;1.67;;;;;;;;;;5036729;28;20098;-89
2022/09/02 06:28:52;;;;;;;2.58;1.73;;;;;;;;;;5053982;28;20048;-90
2022/09/02 06:31:21;;;;;;;5.35;1.80;;;;;;;;;;5036682;28;20081;-90
2022/09/02 06:33:51;;;;;;;3.28;1.88;;;;;;;;;;5036575;28;20055;-90
2022/09/02 06:36:19;;;;;;;4.68;2.40;;;;;;;;;;5036630;28;20095;-89
2022/09/02 06:38:49;;;;;;;7.35;3.05;;;;;;;;;;5036314;28;20083;-90
2022/09/02 06:41:18;;;;;;;15.82;5.13;;;;;;;;;;5036629;28;20072;-90
2022/09/02 06:43:45;;;;;;;16.63;5.43;;;;;;;;;;5036447;28;20424;-89
2022/09/02 06:46:20;;;;;;;20.40;4.93;;;;;;;;;;5035863;28;20081;-89
2022/09/02 06:48:48;;;;;;;30.60;7.18;;;;;;;;;;5036204;28;20078;-89
2022/09/02 06:51:20;;;;;;;24.70;6.18;;;;;;;;;;5036410;28;20045;-89
2022/09/02 06:53:47;;;;;;;21.30;5.75;;;;;;;;;;5036338;28;20136;-90
2022/09/02 06:56:15;;;;;;;25.10;7.18;;;;;;;;;;5036575;28;20104;-88
2022/09/02 06:58:42;;;;;;;22.98;6.10;;;;;;;;;;5036639;28;20049;-89
2022/09/02 07:01:21;;;;;;;32.90;7.50;;;;;;;;;;5036765;28;20049;-88
2022/09/02 07:06:36;;;;;;;47.20;14.48;;;;;;;;;;5053672;28;20077;-88
2022/09/02 07:09:07;;;;;;;50.60;13.80;;;;;;;;;;5053876;28;20059;-88
2022/09/02 07:11:34;;;;;;;42.70;12.13;;;;;;;;;;5036171;28;20053;-87
2022/09/02 07:14:02;;;;;;;42.63;9.55;;;;;;;;;;5035623;28;20320;-88
2022/09/02 07:16:30;;;;;;;25.75;6.72;;;;;;;;;;5035811;28;20083;-88
2022/09/02 07:19:00;;;;;;;34.22;7.10;;;;;;;;;;5035714;28;20504;-88
2022/09/02 07:21:28;;;;;;;16.50;5.60;;;;;;;;;;5053333;28;20048;-88
2022/09/02 07:23:55;;;;;;;22.27;5.15;;;;;;;;;;5034551;28;20080;-87
2022/09/02 07:26:22;;;;;;;18.25;4.63;;;;;;;;;;5035464;28;20140;-88
2022/09/02 07:28:50;;;;;;;16.23;3.40;;;;;;;;;;5035797;28;20044;-88
2022/09/02 07:31:17;;;;;;;12.48;3.40;;;;;;;;;;5035646;28;20108;-87
2022/09/02 07:33:44;;;;;;;11.18;3.00;;;;;;;;;;5035609;28;20057;-87
2022/09/02 07:36:20;;;;;;;8.98;2.30;;;;;;;;;;5036316;28;20071;-88
2022/09/02 07:38:47;;;;;;;14.38;3.47;;;;;;;;;;5035627;28;20052;-88
2022/09/02 07:41:14;;;;;;;20.60;3.50;;;;;;;;;;5035670;28;20049;-87
2022/09/02 07:43:42;;;;;;;12.98;2.80;;;;;;;;;;5035655;28;20111;-89
2022/09/02 07:46:10;;;;;;;16.35;2.95;;;;;;;;;;5035679;28;20088;-87
2022/09/02 07:48:37;;;;;;;8.77;2.70;;;;;;;;;;5053110;28;20067;-86
2022/09/02 07:51:05;;;;;;;6.53;2.20;;;;;;;;;;5035548;28;20084;-88
2022/09/02 07:53:32;;;;;;;3.85;1.77;;;;;;;;;;5035093;28;20049;-87
2022/09/02 07:56:00;;;;;;;14.32;2.05;;;;;;;;;;5035306;28;20144;-87
2022/09/02 07:58:27;;;;;;;8.55;1.83;;;;;;;;;;5036776;28;20087;-87
2022/09/02 08:00:58;;;;;;;7.85;1.73;;;;;;;;;;5056749;28;20061;-87
2022/09/02 08:03:26;;;;;;;5.80;1.65;;;;;;;;;;5039172;28;20045;-88
2022/09/02 08:05:56;;;;;;;7.68;1.65;;;;;;;;;;5038624;28;20053;-86
2022/09/02 08:08:26;;;;;;;8.25;2.08;;;;;;;;;;5039100;28;20409;-86
2022/09/02 08:10:54;;;;;;;4.80;1.55;;;;;;;;;;5038765;28;20082;-86
2022/09/02 08:13:22;;;;;;;7.22;1.67;;;;;;;;;;5039000;28;20049;-87
2022/09/02 08:15:53;;;;;;;4.38;1.55;;;;;;;;;;5056887;28;20053;-88
2022/09/02 08:18:21;;;;;;;3.40;1.20;;;;;;;;;;5056373;28;20052;-88
2022/09/02 08:20:49;;;;;;;2.70;1.52;;;;;;;;;;5056367;28;20421;-86
2022/09/02 08:23:16;;;;;;;6.10;1.58;;;;;;;;;;5038875;28;20068;-88
2022/09/02 08:26:04;;;;;;;4.93;1.35;;;;;;;;;;5056135;28;20061;-88
2022/09/02 08:28:31;;;;;;;5.75;1.48;;;;;;;;;;5039039;28;20048;-88
2022/09/02 08:30:59;;;;;;;2.10;1.50;;;;;;;;;;5056082;28;20056;-88
2022/09/02 08:33:26;;;;;;;1.73;1.30;;;;;;;;;;5038424;28;20478;-88
2022/09/02 08:35:53;;;;;;;1.70;1.08;;;;;;;;;;5055922;28;20081;-87
2022/09/02 08:38:21;;;;;;;1.52;1.10;;;;;;;;;;5038362;28;20079;-91
2022/09/02 08:40:49;;;;;;;8.85;1.50;;;;;;;;;;5056243;28;20052;-88
2022/09/02 08:43:38;;;;;;;4.13;1.20;;;;;;;;;;5038842;28;20055;-88
2022/09/02 08:46:08;;;;;;;4.00;1.40;;;;;;;;;;5042850;28;20052;-88
2022/09/02 08:48:44;;;;;;;4.78;1.30;;;;;;;;;;5038418;28;20053;-89
2022/09/02 08:51:26;;;;;;;2.88;1.13;;;;;;;;;;5056201;28;20077;-89
2022/09/02 08:54:11;;;;;;;2.53;0.93;;;;;;;;;;5055754;28;20073;-89
2022/09/02 08:56:38;;;;;;;1.83;1.30;;;;;;;;;;5038277;28;20076;-87
2022/09/02 08:59:08;;;;;;;1.30;1.00;;;;;;;;;;5055624;28;20080;-87
2022/09/02 09:01:41;;;;;;;2.45;1.10;;;;;;;;;;5056644;28;20417;-95
2022/09/02 09:04:24;;;;;;;0.60;0.60;;;;;;;;;;5057115;28;20547;-93
2022/09/02 09:07:03;;;;;;;1.05;0.60;;;;;;;;;;5038333;28;20501;-94
2022/09/02 09:09:50;;;;;;;3.15;0.73;;;;;;;;;;5035946;28;20060;-88
2022/09/02 09:12:20;;;;;;;1.58;0.90;;;;;;;;;;5038219;28;20442;-92
2022/09/02 09:15:06;;;;;;;2.72;1.30;;;;;;;;;;5038043;28;20099;-93
2022/09/02 09:17:52;;;;;;;1.20;0.88;;;;;;;;;;5055455;28;20143;-91
2022/09/02 09:20:21;;;;;;;3.55;1.15;;;;;;;;;;5038692;28;20060;-93
2022/09/02 09:22:50;;;;;;;1.13;1.00;;;;;;;;;;5038286;28;20064;-93
2022/09/02 09:25:18;;;;;;;2.20;1.00;;;;;;;;;;5039394;28;20080;-92
2022/09/02 09:27:45;;;;;;;7.43;1.00;;;;;;;;;;5056126;28;20080;-94
2022/09/02 09:30:12;;;;;;;0.73;0.70;;;;;;;;;;5038274;28;20465;-93
2022/09/02 09:33:03;;;;;;;2.13;0.40;;;;;;;;;;5038048;28;20053;-92
2022/09/02 09:35:46;;;;;;;0.82;0.38;;;;;;;;;;5038527;28;20103;-94
2022/09/02 09:38:13;;;;;;;;;;;;;;;;;;5038515;28;20091;-95
2022/09/02 09:40:41;;;;;;;1.58;0.40;;;;;;;;;;5037881;28;19920;-92
2022/09/02 09:43:09;;;;;;;0.60;0.50;;;;;;;;;;5038230;28;20084;-93
2022/09/02 09:45:45;;;;;;;2.17;0.60;;;;;;;;;;5038372;28;20088;-92
2022/09/02 09:48:17;;;;;;;1.67;0.65;;;;;;;;;;5038326;28;20100;-90
2022/09/02 09:50:48;;;;;;;0.80;0.50;;;;;;;;;;5056857;28;20084;-90
2022/09/02 09:53:20;;;;;;;0.82;0.50;;;;;;;;;;5038258;28;20080;-90
2022/09/02 09:55:54;;;;;;;2.00;0.65;;;;;;;;;;5037735;28;20131;-92
2022/09/02 09:58:22;;;;;;;4.32;0.50;;;;;;;;;;5037609;28;20087;-92
2022/09/02 10:00:55;;;;;;;1.52;0.60;;;;;;;;;;5037630;28;20561;-90
2022/09/02 10:03:24;;;;;;;0.70;0.70;;;;;;;;;;5038005;28;20052;-94
2022/09/02 10:05:56;;;;;;;1.02;0.60;;;;;;;;;;5055378;28;20084;-94
2022/09/02 10:08:27;;;;;;;1.20;0.43;;;;;;;;;;5039466;28;20048;-95
2022/09/02 10:10:55;;;;;;;1.83;0.60;;;;;;;;;;5039621;28;20061;-95
2022/09/02 10:13:29;;;;;;;1.23;0.60;;;;;;;;;;5038983;28;20067;-93
2022/09/02 10:16:21;;;;;;;0.95;0.55;;;;;;;;;;5040443;28;20132;-96
2022/09/02 10:18:53;;;;;;;0.50;0.50;;;;;;;;;;5039916;28;20048;-93
2022/09/02 10:21:39;;;;;;;1.33;0.50;;;;;;;;;;5039986;28;20567;-96
2022/09/02 10:24:14;;;;;;;0.50;0.50;;;;;;;;;;5042010;28;20052;-96
2022/09/02 10:26:49;;;;;;;0.52;0.40;;;;;;;;;;5038671;28;20109;-94
2022/09/02 10:29:28;;;;;;;3.60;0.70;;;;;;;;;;5038532;28;20095;-92
2022/09/02 10:32:22;;;;;;;0.45;0.43;;;;;;;;;;5037515;28;20076;-93
2022/09/02 10:35:01;;;;;;;2.60;0.60;;;;;;;;;;5034303;28;20071;-95
2022/09/02 10:37:43;;;;;;;0.40;0.40;;;;;;;;;;5038195;28;20136;-94
2022/09/02 10:40:16;;;;;;;0.70;0.50;;;;;;;;;;5037956;28;20489;-92
2022/09/02 10:42:47;;;;;;;1.58;0.60;;;;;;;;;;5038287;28;20079;-91
2022/09/02 10:45:30;;;;;;;0.50;0.50;;;;;;;;;;5037951;28;20072;-92
2022/09/02 10:48:17;;;;;;;0.82;0.60;;;;;;;;;;5037349;28;20083;-95
2022/09/02 10:50:52;;;;;;;0.60;0.60;;;;;;;;;;5036738;28;20045;-94
2022/09/02 10:53:29;;;;;;;1.52;0.57;;;;;;;;;;5036869;28;20048;-92
2022/09/02 10:56:02;;;;;;;2.25;0.50;;;;;;;;;;5037078;28;20485;-92
2022/09/02 10:58:37;;;;;;;1.35;0.70;;;;;;;;;;5036493;28;20079;-93
2022/09/02 11:01:06;;;;;;;1.33;0.50;;;;;;;;;;5036273;28;20083;-95
2022/09/02 11:03:37;;;;;;;0.50;0.50;;;;;;;;;;5036904;28;20432;-91
2022/09/02 11:06:11;;;;;;;1.88;0.60;;;;;;;;;;5037013;28;20064;-92
2022/09/02 11:08:40;;;;;;;0.85;0.60;;;;;;;;;;5037912;28;20049;-95
2022/09/02 11:11:10;;;;;;;2.65;0.50;;;;;;;;;;5036933;28;20079;-92
2022/09/02 11:13:43;;;;;;;0.90;0.50;;;;;;;;;;5036435;28;20163;-92
2022/09/02 11:16:11;;;;;;;;;;;;;;;;;;5037214;28;20160;-92
2022/09/02 11:18:57;;;;;;;0.85;0.68;;;;;;;;;;5036463;28;20034;-95
2022/09/02 11:21:30;;;;;;;0.75;0.50;;;;;;;;;;5037380;28;20476;-91
2022/09/02 11:24:01;;;;;;;2.95;0.60;;;;;;;;;;5037577;28;20053;-94
2022/09/02 11:26:52;;;;;;;0.73;0.50;;;;;;;;;;5036027;28;20132;-91
2022/09/02 11:29:39;;;;;;;0.50;0.50;;;;;;;;;;5001226;28;20049;-91
2022/09/02 11:32:27;;;;;;;3.28;0.50;;;;;;;;;;5037911;28;20069;-90
2022/09/02 11:34:56;;;;;;;1.10;0.57;;;;;;;;;;5040334;28;20497;-91
2022/09/02 11:37:32;;;;;;;1.58;0.75;;;;;;;;;;5040593;28;20481;-92
2022/09/02 11:40:07;;;;;;;0.60;0.52;;;;;;;;;;5040022;28;20458;-93
2022/09/02 11:43:14;;;;;;;1.55;0.57;;;;;;;;;;5043469;28;20053;-92
2022/09/02 11:46:00;;;;;;;1.45;0.60;;;;;;;;;;5052641;28;20053;-88
2022/09/02 11:48:42;;;;;;;0.68;0.40;;;;;;;;;;5042563;28;20471;-93
2022/09/02 11:51:16;;;;;;;2.05;0.75;;;;;;;;;;5039866;28;20564;-90
2022/09/02 11:53:44;;;;;;;0.60;0.60;;;;;;;;;;5040293;28;20057;-95
2022/09/02 11:56:13;;;;;;;3.03;0.60;;;;;;;;;;5039680;28;20053;-91
2022/09/02 11:58:43;;;;;;;2.95;0.70;;;;;;;;;;5040270;28;20076;-91
2022/09/02 12:01:30;;;;;;;0.65;0.65;;;;;;;;;;5039596;28;20136;-91
2022/09/02 12:04:03;;;;;;;2.38;0.47;;;;;;;;;;5039825;28;20075;-92
2022/09/02 12:07:05;;;;;;;0.50;0.50;;;;;;;;;;5042291;28;20135;-91
2022/09/02 12:09:41;;;;;;;0.40;0.40;;;;;;;;;;5039967;28;20049;-92
2022/09/02 12:12:10;;;;;;;1.52;0.77;;;;;;;;;;5039505;28;20505;-92
2022/09/02 12:14:47;;;;;;;0.30;0.30;;;;;;;;;;5040217;28;20100;-94
2022/09/02 12:17:36;;;;;;;2.42;0.70;;;;;;;;;;5039582;28;20099;-95
2022/09/02 12:20:07;;;;;;;0.50;0.50;;;;;;;;;;5039480;28;20581;-91
2022/09/02 12:22:39;;;;;;;2.95;0.52;;;;;;;;;;5040109;28;20080;-92
2022/09/02 12:25:36;;;;;;;2.88;0.52;;;;;;;;;;5040729;28;20128;-90
2022/09/02 12:28:23;;;;;;;0.85;0.57;;;;;;;;;;5040068;28;20064;-94
2022/09/02 12:30:55;;;;;;;2.55;0.45;;;;;;;;;;5040302;28;20056;-91
2022/09/02 12:33:29;;;;;;;2.50;0.55;;;;;;;;;;5039501;28;20064;-94
2022/09/02 12:35:58;;;;;;;0.50;0.50;;;;;;;;;;5039458;28;20080;-91
2022/09/02 12:38:41;;;;;;;0.55;0.55;;;;;;;;;;5040609;28;20045;-93
2022/09/02 12:41:16;;;;;;;1.63;0.65;;;;;;;;;;5039487;28;20055;-91
2022/09/02 12:43:52;;;;;;;2.17;0.73;;;;;;;;;;5038604;28;20498;-92
2022/09/02 12:46:38;;;;;;;0.60;0.40;;;;;;;;;;5038124;28;20045;-91
2022/09/02 12:49:13;;;;;;;2.40;0.60;;;;;;;;;;5038987;28;20052;-90
2022/09/02 12:52:04;;;;;;;1.75;0.45;;;;;;;;;;5038895;28;20069;-87
2022/09/02 12:54:38;;;;;;;2.88;0.60;;;;;;;;;;5020603;28;20459;-94
2022/09/02 12:57:06;;;;;;;0.80;0.63;;;;;;;;;;5039264;28;20049;-91
2022/09/02 12:59:34;;;;;;;0.50;0.40;;;;;;;;;;5038706;28;20045;-89
2022/09/02 13:02:20;;;;;;;1.38;0.55;;;;;;;;;;5039026;28;20446;-90
2022/09/02 13:05:03;;;;;;;1.35;0.52;;;;;;;;;;5038895;28;20132;-88
2022/09/02 13:08:05;;;;;;;0.52;0.30;;;;;;;;;;5038992;28;20069;-95
2022/09/02 13:10:38;;;;;;;3.60;0.65;;;;;;;;;;4959381;28;20078;-88
2022/09/02 13:13:26;;;;;;;1.57;0.50;;;;;;;;;;5029333;28;20058;-89
2022/09/02 13:15:56;;;;;;;2.17;0.50;;;;;;;;;;5039314;28;20055;-93
2022/09/02 13:18:42;;;;;;;0.50;0.40;;;;;;;;;;5038603;28;20077;-92
2022/09/02 13:21:19;;;;;;;1.13;0.47;;;;;;;;;;5038151;28;20144;-93
2022/09/02 13:24:05;;;;;;;0.50;0.50;;;;;;;;;;5037116;28;20081;-92
2022/09/02 13:26:51;;;;;;;0.90;0.43;;;;;;;;;;5038153;28;20148;-89
2022/09/02 13:29:32;;;;;;;0.75;0.50;;;;;;;;;;5039150;28;20080;-92
2022/09/02 13:32:03;;;;;;;0.75;0.55;;;;;;;;;;5038134;28;20072;-93
2022/09/02 13:34:31;;;;;;;1.30;0.50;;;;;;;;;;5038550;28;20466;-92
2022/09/02 13:36:58;;;;;;;0.40;0.30;;;;;;;;;;5037549;28;20079;-92
2022/09/02 13:39:27;;;;;;;2.33;0.60;;;;;;;;;;5039240;28;20141;-91
2022/09/02 13:41:54;;;;;;;2.40;0.50;;;;;;;;;;5038708;28;20125;-90
2022/09/02 13:44:24;;;;;;;4.00;0.40;;;;;;;;;;5038823;28;20131;-90
2022/09/02 13:46:54;;;;;;;2.40;0.50;;;;;;;;;;5038040;28;20076;-89
2022/09/02 13:49:26;;;;;;;2.50;0.70;;;;;;;;;;5037918;28;20044;-91
2022/09/02 13:51:54;;;;;;;2.83;0.60;;;;;;;;;;5038114;28;20152;-90
2022/09/02 13:54:28;;;;;;;0.40;0.40;;;;;;;;;;5037421;28;20049;-95
2022/09/02 13:56:55;;;;;;;0.63;0.60;;;;;;;;;;5037312;28;20069;-92
2022/09/02 13:59:39;;;;;;;2.22;0.47;;;;;;;;;;5037800;28;20072;-94
2022/09/02 14:02:16;;;;;;;0.43;0.40;;;;;;;;;;5037742;28;20072;-89
2022/09/02 14:04:44;;;;;;;0.40;0.40;;;;;;;;;;5037653;28;20057;-91
2022/09/02 14:07:12;;;;;;;0.45;0.40;;;;;;;;;;5044247;28;20075;-93
2022/09/02 14:09:40;;;;;;;0.75;0.30;;;;;;;;;;5038969;28;20080;-91
2022/09/02 14:12:07;;;;;;;1.63;0.43;;;;;;;;;;5037731;28;20083;-92
2022/09/02 14:14:35;;;;;;;1.10;0.60;;;;;;;;;;5039697;28;20053;-92
2022/09/02 14:17:16;;;;;;;0.68;0.40;;;;;;;;;;5036967;28;20072;-89
2022/09/02 14:19:44;;;;;;;0.60;0.40;;;;;;;;;;5037006;28;20072;-92
2022/09/02 14:22:20;;;;;;;0.70;0.52;;;;;;;;;;5037609;28;20072;-91
2022/09/02 14:24:47;;;;;;;0.40;0.40;;;;;;;;;;5037844;28;20073;-92
2022/09/02 14:27:19;;;;;;;1.55;0.52;;;;;;;;;;5036910;28;20084;-92
2022/09/02 14:29:49;;;;;;;0.47;0.47;;;;;;;;;;5037769;28;20136;-90
2022/09/02 14:32:21;;;;;;;1.48;0.50;;;;;;;;;;5037733;28;20128;-90
2022/09/02 14:34:49;;;;;;;0.95;0.60;;;;;;;;;;5036892;28;20139;-89
2022/09/02 14:37:22;;;;;;;6.00;0.95;;;;;;;;;;5036898;28;20489;-88
2022/09/02 14:40:07;;;;;;;0.77;0.75;;;;;;;;;;5036563;28;20052;-91
2022/09/02 14:42:51;;;;;;;0.73;0.60;;;;;;;;;;5037265;28;20053;-91
2022/09/02 14:45:30;;;;;;;2.15;0.60;;;;;;;;;;5037861;28;20045;-91
2022/09/02 14:47:57;;;;;;;;;;;;;;;;;;5035945;28;20087;-90
2022/09/02 14:50:27;;;;;;;1.13;0.60;;;;;;;;;;5037942;28;19921;-93
2022/09/02 14:52:58;;;;;;;2.13;0.50;;;;;;;;;;5037100;28;20081;-92
2022/09/02 14:55:43;;;;;;;0.73;0.60;;;;;;;;;;5036240;28;20106;-92
2022/09/02 14:58:10;;;;;;;4.55;0.75;;;;;;;;;;5036702;28;20472;-91
2022/09/02 15:00:38;;;;;;;0.47;0.40;;;;;;;;;;5036250;28;20110;-88
2022/09/02 15:03:06;;;;;;;1.00;0.50;;;;;;;;;;5036429;28;20057;-90
2022/09/02 15:05:33;;;;;;;1.10;0.40;;;;;;;;;;5053417;28;20084;-91
2022/09/02 15:08:00;;;;;;;1.25;0.40;;;;;;;;;;5035500;28;20076;-91